createdAt,value
2022-11-16T00:00:12.704Z,99553.56
2022-11-16T00:01:21.684Z,99558.72
2022-11-16T00:02:15.756Z,99545.72
2022-11-16T00:02:58.719Z,99548.66
2022-11-16T00:03:39.751Z,99543.28
2022-11-16T00:04:19.657Z,99534.38
2022-11-16T00:05:02.774Z,99553.03
2022-11-16T00:05:42.721Z,99537.25
2022-11-16T00:06:23.640Z,99557.72
2022-11-16T00:07:03.711Z,99567.09
2022-11-16T00:07:58.699Z,99558.91
2022-11-16T00:09:15.677Z,99550.59
2022-11-16T00:10:09.695Z,99563.25
2022-11-16T00:11:03.670Z,99561.06
2022-11-16T00:11:58.703Z,99559.00
2022-11-16T00:12:52.693Z,99560.56
2022-11-16T00:13:32.678Z,99558.50
2022-11-16T00:14:13.783Z,99563.00
2022-11-16T00:14:54.686Z,99556.66
2022-11-16T00:15:34.711Z,99558.34
2022-11-16T00:16:21.674Z,99554.22
2022-11-16T00:17:02.754Z,99552.03
2022-11-16T00:17:42.679Z,99555.72
2022-11-16T00:18:22.751Z,99558.56
2022-11-16T00:19:05.704Z,99560.59
2022-11-16T00:19:45.715Z,99543.03
2022-11-16T00:20:25.680Z,99540.56
2022-11-16T00:21:05.777Z,99544.25
2022-11-16T00:21:46.679Z,99549.22
2022-11-16T00:22:26.718Z,99546.53
2022-11-16T00:23:06.657Z,99538.38
2022-11-16T00:23:46.733Z,99549.34
2022-11-16T00:24:28.688Z,99538.38
2022-11-16T00:25:08.723Z,99536.19
2022-11-16T00:25:48.681Z,99536.66
2022-11-16T00:26:28.851Z,99525.19
2022-11-16T00:27:08.652Z,99542.00
2022-11-16T00:27:48.729Z,99540.41
2022-11-16T00:28:28.651Z,99539.41
2022-11-16T00:29:08.731Z,99534.88
2022-11-16T00:29:48.651Z,99527.56
2022-11-16T00:30:28.707Z,99526.59
2022-11-16T00:31:11.686Z,99516.59
2022-11-16T00:31:52.993Z,99526.44
2022-11-16T00:32:32.651Z,99530.84
2022-11-16T00:33:13.720Z,99528.28
2022-11-16T00:33:54.656Z,99516.56
2022-11-16T00:34:34.777Z,99535.38
2022-11-16T00:35:15.658Z,99521.97
2022-11-16T00:35:55.750Z,99540.53
2022-11-16T00:36:35.631Z,99540.06
2022-11-16T00:37:15.746Z,99541.16
2022-11-16T00:37:55.657Z,99546.41
2022-11-16T00:38:36.017Z,99549.97
2022-11-16T00:39:21.635Z,99543.41
2022-11-16T00:40:01.717Z,99534.25
2022-11-16T00:40:41.707Z,99541.09
2022-11-16T00:41:21.714Z,99543.91
2022-11-16T00:42:01.640Z,99532.06
2022-11-16T00:42:41.710Z,99537.91
2022-11-16T00:43:22.650Z,99542.16
2022-11-16T00:44:02.721Z,99531.69
2022-11-16T00:44:42.650Z,99523.78
2022-11-16T00:45:22.697Z,99535.72
2022-11-16T00:46:02.673Z,99533.03
2022-11-16T00:46:42.710Z,99530.00
2022-11-16T00:47:22.626Z,99523.50
2022-11-16T00:48:02.663Z,99532.53
2022-11-16T00:48:43.629Z,99506.03
2022-11-16T00:49:23.814Z,99519.75
2022-11-16T00:50:03.615Z,99507.31
2022-11-16T00:50:44.742Z,99511.00
2022-11-16T00:51:24.693Z,99501.09
2022-11-16T00:52:04.697Z,99514.09
2022-11-16T00:52:45.640Z,99491.91
2022-11-16T00:53:26.719Z,99513.63
2022-11-16T00:54:07.619Z,99492.38
2022-11-16T00:54:48.434Z,99511.41
2022-11-16T00:55:29.623Z,99507.00
2022-11-16T00:56:10.754Z,99502.88
2022-11-16T00:56:50.671Z,99502.88
2022-11-16T00:57:30.719Z,99508.44
2022-11-16T00:58:10.657Z,99509.19
2022-11-16T00:58:50.726Z,99506.94
2022-11-16T00:59:30.633Z,99501.38
2022-11-16T01:00:11.707Z,99486.00
2022-11-16T01:01:05.671Z,99496.00
2022-11-16T01:01:59.647Z,99496.06
2022-11-16T01:02:53.615Z,99498.25
2022-11-16T01:03:49.641Z,99499.34
2022-11-16T01:04:43.644Z,99498.63
2022-11-16T01:05:37.636Z,99504.25
2022-11-16T01:06:31.636Z,99495.16
2022-11-16T01:07:18.737Z,99507.22
2022-11-16T01:07:52.674Z,99510.28
2022-11-16T01:08:42.591Z,99511.97
2022-11-16T01:09:16.672Z,99519.66
2022-11-16T01:10:03.639Z,99495.28
2022-11-16T01:10:37.713Z,99519.41
2022-11-16T01:11:44.653Z,99522.69
2022-11-16T01:12:32.663Z,99505.75
2022-11-16T01:13:06.814Z,99524.78
2022-11-16T01:13:53.596Z,99504.31
2022-11-16T01:14:27.299Z,99504.31
2022-11-16T01:15:17.590Z,99500.06
2022-11-16T01:15:51.304Z,99506.13
2022-11-16T01:16:38.646Z,99520.19
2022-11-16T01:17:14.292Z,99515.47
2022-11-16T01:17:55.640Z,99511.81
2022-11-16T01:18:29.749Z,99501.31
2022-11-16T01:19:04.458Z,99491.09
2022-11-16T01:19:45.582Z,99506.16
2022-11-16T01:20:26.667Z,99513.25
2022-11-16T01:21:00.305Z,99501.50
2022-11-16T01:21:41.614Z,99503.09
2022-11-16T01:22:15.658Z,99505.63
2022-11-16T01:23:02.640Z,99501.19
2022-11-16T01:23:36.747Z,99490.81
2022-11-16T01:24:23.608Z,99483.63
2022-11-16T01:24:57.646Z,99493.72
2022-11-16T01:25:44.589Z,99495.41
2022-11-16T01:26:18.671Z,99494.81
2022-11-16T01:27:05.608Z,99502.25
2022-11-16T01:27:39.639Z,99507.16
2022-11-16T01:28:26.600Z,99492.00
2022-11-16T01:29:00.633Z,99501.63
2022-11-16T01:29:47.618Z,99502.09
2022-11-16T01:30:22.660Z,99513.09
2022-11-16T01:31:10.589Z,99499.59
2022-11-16T01:31:44.661Z,99488.66
2022-11-16T01:32:31.591Z,99495.53
2022-11-16T01:33:05.653Z,99492.31
2022-11-16T01:33:45.626Z,99481.38
2022-11-16T01:34:25.631Z,99479.88
2022-11-16T01:35:05.584Z,99478.69
2022-11-16T01:35:50.661Z,99487.94
2022-11-16T01:36:30.600Z,99486.47
2022-11-16T01:37:10.710Z,99488.94
2022-11-16T01:37:51.573Z,99492.72
2022-11-16T01:38:31.931Z,99477.72
2022-11-16T01:39:13.615Z,99495.84
2022-11-16T01:39:56.658Z,99484.91
2022-11-16T01:40:37.579Z,99488.53
2022-11-16T01:41:28.632Z,99470.78
2022-11-16T01:42:09.634Z,99490.88
2022-11-16T01:42:49.642Z,99472.84
2022-11-16T01:43:32.569Z,99475.03
2022-11-16T01:44:28.688Z,99478.56
2022-11-16T01:45:50.592Z,99470.50
2022-11-16T01:46:45.583Z,99478.56
2022-11-16T01:47:39.564Z,99476.59
2022-11-16T01:48:41.620Z,99475.50
2022-11-16T01:49:37.598Z,99479.69
2022-11-16T01:50:32.568Z,99465.91
2022-11-16T01:51:26.565Z,99467.94
2022-11-16T01:52:28.566Z,99478.88
2022-11-16T01:53:24.563Z,99470.97
2022-11-16T01:54:23.545Z,99475.50
2022-11-16T01:55:04.599Z,99463.56
2022-11-16T01:55:45.630Z,99463.56
2022-11-16T01:56:27.599Z,99460.22
2022-11-16T01:57:09.641Z,99463.28
2022-11-16T01:57:51.562Z,99471.88
2022-11-16T01:58:32.986Z,99465.28
2022-11-16T01:59:14.560Z,99462.31
2022-11-16T01:59:56.680Z,99459.63
2022-11-16T02:00:36.588Z,99477.19
2022-11-16T02:01:16.752Z,99476.94
2022-11-16T02:01:56.550Z,99475.50
2022-11-16T02:02:36.630Z,99457.06
2022-11-16T02:03:16.587Z,99472.94
2022-11-16T02:03:56.628Z,99461.44
2022-11-16T02:04:36.549Z,99459.63
2022-11-16T02:05:20.607Z,99461.31
2022-11-16T02:06:47.629Z,99453.78
2022-11-16T02:08:14.126Z,99470.34
2022-11-16T02:09:40.590Z,99461.25
2022-11-16T02:10:55.635Z,99456.47
2022-11-16T02:12:05.587Z,99444.03
2022-11-16T02:13:25.619Z,99468.22
2022-11-16T02:14:46.534Z,99459.09
2022-11-16T02:16:01.648Z,99448.53
2022-11-16T02:16:49.549Z,99447.50
2022-11-16T02:17:49.597Z,99448.47
2022-11-16T02:18:55.624Z,99457.06
2022-11-16T02:20:32.515Z,99447.09
2022-11-16T02:21:35.609Z,99457.06
2022-11-16T02:22:53.582Z,99457.66
2022-11-16T02:24:00.611Z,99460.34
2022-11-16T02:24:52.542Z,99449.16
2022-11-16T02:26:02.622Z,99442.31
2022-11-16T02:26:58.523Z,99453.25
2022-11-16T02:28:16.599Z,99448.16
2022-11-16T02:29:40.098Z,99442.06
2022-11-16T02:30:27.545Z,99440.25
2022-11-16T02:31:05.422Z,99436.25
2022-11-16T02:32:19.571Z,99433.03
2022-11-16T02:33:04.792Z,99419.38
2022-11-16T02:33:46.531Z,99436.69
2022-11-16T02:34:23.591Z,99432.28
2022-11-16T02:35:27.725Z,99435.19
2022-11-16T02:36:10.531Z,99433.94
2022-11-16T02:36:45.594Z,99422.84
2022-11-16T02:37:22.361Z,99417.38
2022-11-16T02:38:34.945Z,99418.06
2022-11-16T02:39:25.530Z,99404.25
2022-11-16T02:40:02.928Z,99433.28
2022-11-16T02:40:52.548Z,99419.38
2022-11-16T02:41:28.350Z,99414.84
2022-11-16T02:42:16.536Z,99418.44
2022-11-16T02:43:10.037Z,99423.91
2022-11-16T02:44:03.554Z,99408.31
2022-11-16T02:44:50.570Z,99410.94
2022-11-16T02:45:36.419Z,99413.63
2022-11-16T02:46:23.532Z,99398.16
2022-11-16T02:47:07.564Z,99413.09
2022-11-16T02:47:48.555Z,99423.38
2022-11-16T02:48:33.831Z,99408.09
2022-11-16T02:49:23.528Z,99418.31
2022-11-16T02:50:17.544Z,99412.00
2022-11-16T02:50:52.992Z,99411.56
2022-11-16T02:51:40.515Z,99411.72
2022-11-16T02:52:15.188Z,99408.31
2022-11-16T02:53:02.503Z,99414.78
2022-11-16T02:53:50.545Z,99412.25
2022-11-16T02:54:37.537Z,99411.00
2022-11-16T02:55:12.675Z,99412.84
2022-11-16T02:55:52.542Z,99423.19
2022-11-16T02:56:26.634Z,99400.25
2022-11-16T02:57:04.066Z,99395.66
2022-11-16T02:58:07.535Z,99404.50
2022-11-16T02:58:41.557Z,99415.84
2022-11-16T02:59:17.745Z,99406.09
2022-11-16T03:00:01.506Z,99407.94
2022-11-16T03:01:02.587Z,99394.56
2022-11-16T03:01:41.659Z,99417.69
2022-11-16T03:02:44.533Z,99422.91
2022-11-16T03:04:07.119Z,99420.84
2022-11-16T03:05:00.515Z,99426.19
2022-11-16T03:05:44.454Z,99423.66
2022-11-16T03:06:31.528Z,99431.06
2022-11-16T03:07:13.590Z,99424.13
2022-11-16T03:08:21.499Z,99428.44
2022-11-16T03:09:07.633Z,99422.13
2022-11-16T03:09:48.503Z,99427.97
2022-11-16T03:10:48.024Z,99407.28
2022-11-16T03:11:47.548Z,99419.44
2022-11-16T03:12:32.539Z,99417.88
2022-11-16T03:13:15.481Z,99425.94
2022-11-16T03:13:56.585Z,99424.09
2022-11-16T03:14:52.528Z,99419.00
2022-11-16T03:15:32.575Z,99411.06
2022-11-16T03:16:38.467Z,99427.50
2022-11-16T03:17:40.507Z,99421.03
2022-11-16T03:18:15.524Z,99408.00
2022-11-16T03:19:04.481Z,99418.22
2022-11-16T03:19:49.776Z,99422.25
2022-11-16T03:20:38.676Z,99427.31
2022-11-16T03:21:27.544Z,99425.47
2022-11-16T03:22:22.693Z,99424.28
2022-11-16T03:23:07.533Z,99422.00
2022-11-16T03:24:01.535Z,99432.97
2022-11-16T03:24:55.486Z,99425.38
2022-11-16T03:26:03.495Z,99421.22
2022-11-16T03:27:16.490Z,99421.09
2022-11-16T03:28:21.520Z,99424.63
2022-11-16T03:29:28.496Z,99413.28
2022-11-16T03:30:32.467Z,99426.53
2022-11-16T03:31:41.474Z,99412.19
2022-11-16T03:32:58.504Z,99423.25
2022-11-16T03:33:53.495Z,99402.63
2022-11-16T03:34:29.543Z,99415.38
2022-11-16T03:35:36.471Z,99424.03
2022-11-16T03:36:30.560Z,99424.75
2022-11-16T03:37:18.471Z,99416.97
2022-11-16T03:37:56.508Z,99419.84
2022-11-16T03:38:45.463Z,99420.44
2022-11-16T03:39:35.554Z,99402.91
2022-11-16T03:40:31.469Z,99418.13
2022-11-16T03:41:26.479Z,99413.63
2022-11-16T03:42:25.488Z,99416.22
2022-11-16T03:43:20.459Z,99419.38
2022-11-16T03:44:15.461Z,99417.97
2022-11-16T03:44:56.498Z,99418.84
2022-11-16T03:45:37.504Z,99421.69
2022-11-16T03:46:18.479Z,99425.22
2022-11-16T03:46:59.556Z,99425.09
2022-11-16T03:47:39.466Z,99423.69
2022-11-16T03:48:20.507Z,99422.00
2022-11-16T03:49:06.447Z,99418.59
2022-11-16T03:49:52.497Z,99424.03
2022-11-16T03:50:33.477Z,99424.75
2022-11-16T03:51:16.542Z,99407.22
2022-11-16T03:51:57.449Z,99422.53
2022-11-16T03:52:37.508Z,99411.47
2022-11-16T03:53:17.460Z,99406.56
2022-11-16T03:53:57.478Z,99415.91
2022-11-16T03:54:37.448Z,99402.81
2022-11-16T03:55:17.728Z,99414.00
2022-11-16T03:55:57.479Z,99390.25
2022-11-16T03:56:37.501Z,99408.38
2022-11-16T03:57:22.438Z,99411.47
2022-11-16T03:58:02.532Z,99420.50
2022-11-16T03:58:42.447Z,99413.53
2022-11-16T03:59:22.527Z,99422.13
2022-11-16T04:00:02.452Z,99422.13
2022-11-16T04:00:42.528Z,99407.28
2022-11-16T04:01:23.497Z,99425.88
2022-11-16T04:02:03.531Z,99417.59
2022-11-16T04:02:43.447Z,99408.59
2022-11-16T04:03:23.465Z,99410.28
2022-11-16T04:04:03.435Z,99421.03
2022-11-16T04:05:02.090Z,99414.81
2022-11-16T04:06:01.467Z,99417.22
2022-11-16T04:07:00.502Z,99430.66
2022-11-16T04:07:53.176Z,99423.50
2022-11-16T04:08:59.456Z,99415.34
2022-11-16T04:09:52.017Z,99420.44
2022-11-16T04:10:58.452Z,99424.44
2022-11-16T04:11:51.264Z,99419.91
2022-11-16T04:12:50.482Z,99419.38
2022-11-16T04:13:56.258Z,99410.63
2022-11-16T04:14:55.431Z,99405.50
2022-11-16T04:15:54.223Z,99411.66
2022-11-16T04:16:53.444Z,99416.50
2022-11-16T04:17:58.434Z,99411.75
2022-11-16T04:19:10.481Z,99413.44
2022-11-16T04:20:22.464Z,99420.19
2022-11-16T04:21:28.044Z,99418.50
2022-11-16T04:22:35.442Z,99417.28
2022-11-16T04:23:38.470Z,99418.03
2022-11-16T04:24:14.500Z,99413.81
2022-11-16T04:25:12.426Z,99417.59
2022-11-16T04:25:47.818Z,99419.91
2022-11-16T04:27:03.449Z,99410.50
2022-11-16T04:27:55.897Z,99418.06
2022-11-16T04:28:43.453Z,99414.41
2022-11-16T04:29:17.466Z,99411.34
2022-11-16T04:30:05.418Z,99404.50
2022-11-16T04:30:58.254Z,99412.22
2022-11-16T04:32:04.433Z,99401.97
2022-11-16T04:32:58.066Z,99406.88
2022-11-16T04:34:04.445Z,99415.38
2022-11-16T04:34:57.031Z,99418.13
2022-11-16T04:36:03.428Z,99418.06
2022-11-16T04:36:56.295Z,99414.25
2022-11-16T04:37:55.405Z,99403.38
2022-11-16T04:38:29.478Z,99408.50
2022-11-16T04:39:16.441Z,99396.59
2022-11-16T04:39:50.484Z,99398.28
2022-11-16T04:40:37.419Z,99404.28
2022-11-16T04:41:31.433Z,99388.06
2022-11-16T04:42:28.384Z,99401.75
2022-11-16T04:43:04.508Z,99405.41
2022-11-16T04:43:51.391Z,99388.34
2022-11-16T04:44:52.450Z,99394.13
2022-11-16T04:46:04.399Z,99388.84
2022-11-16T04:47:13.427Z,99396.13
2022-11-16T04:48:08.409Z,99403.34
2022-11-16T04:49:02.414Z,99402.72
2022-11-16T04:49:56.425Z,99392.75
2022-11-16T04:50:51.386Z,99394.22
2022-11-16T04:51:45.405Z,99382.25
2022-11-16T04:52:39.491Z,99383.75
2022-11-16T04:53:34.449Z,99380.47
2022-11-16T04:54:28.411Z,99377.91
2022-11-16T04:55:16.420Z,99370.38
2022-11-16T04:55:51.033Z,99383.47
2022-11-16T04:56:38.376Z,99373.50
2022-11-16T04:57:12.416Z,99374.19
2022-11-16T04:57:59.400Z,99384.81
2022-11-16T04:58:33.657Z,99386.16
2022-11-16T04:59:20.391Z,99380.03
2022-11-16T04:59:54.534Z,99386.91
2022-11-16T05:00:41.404Z,99384.34
2022-11-16T05:01:15.502Z,99382.25
2022-11-16T05:02:14.376Z,99384.47
2022-11-16T05:02:48.432Z,99382.50
2022-11-16T05:03:35.371Z,99378.72
2022-11-16T05:04:09.543Z,99370.81
2022-11-16T05:04:56.406Z,99380.03
2022-11-16T05:05:30.499Z,99377.13
2022-11-16T05:06:11.398Z,99373.13
2022-11-16T05:06:51.456Z,99375.94
2022-11-16T05:07:31.404Z,99378.59
2022-11-16T05:08:11.444Z,99372.50
2022-11-16T05:08:51.377Z,99373.22
2022-11-16T05:09:31.429Z,99374.06
2022-11-16T05:10:13.356Z,99369.81
2022-11-16T05:10:59.459Z,99362.75
2022-11-16T05:11:39.409Z,99366.28
2022-11-16T05:12:30.417Z,99363.50
2022-11-16T05:13:10.389Z,99362.56
2022-11-16T05:13:50.568Z,99356.88
2022-11-16T05:14:30.392Z,99357.47
2022-11-16T05:15:12.505Z,99357.34
2022-11-16T05:15:53.363Z,99362.84
2022-11-16T05:16:33.519Z,99367.44
2022-11-16T05:17:14.395Z,99362.34
2022-11-16T05:17:55.711Z,99350.47
2022-11-16T05:18:35.591Z,99360.38
2022-11-16T05:19:34.997Z,99351.31
2022-11-16T05:20:35.375Z,99356.97
2022-11-16T05:21:15.418Z,99355.03
2022-11-16T05:21:55.352Z,99346.78
2022-11-16T05:22:35.376Z,99354.19
2022-11-16T05:23:29.411Z,99344.44
2022-11-16T05:24:35.398Z,99351.31
2022-11-16T05:25:09.435Z,99344.25
2022-11-16T05:25:56.373Z,99343.50
2022-11-16T05:26:30.408Z,99343.50
2022-11-16T05:27:20.359Z,99328.69
2022-11-16T05:28:01.372Z,99345.72
2022-11-16T05:28:55.339Z,99345.00
2022-11-16T05:29:50.356Z,99333.47
2022-11-16T05:30:44.384Z,99341.53
2022-11-16T05:31:40.542Z,99346.66
2022-11-16T05:32:36.368Z,99336.97
2022-11-16T05:33:25.414Z,99334.13
2022-11-16T05:33:59.379Z,99334.84
2022-11-16T05:34:46.342Z,99349.13
2022-11-16T05:35:20.606Z,99328.69
2022-11-16T05:36:07.353Z,99345.00
2022-11-16T05:36:41.463Z,99340.34
2022-11-16T05:37:32.385Z,99340.91
2022-11-16T05:38:06.424Z,99336.50
2022-11-16T05:38:46.383Z,99339.88
2022-11-16T05:39:26.514Z,99327.22
2022-11-16T05:40:07.346Z,99337.72
2022-11-16T05:40:47.675Z,99340.16
2022-11-16T05:41:27.349Z,99337.97
2022-11-16T05:42:08.439Z,99346.75
2022-11-16T05:42:48.343Z,99342.22
2022-11-16T05:43:28.468Z,99343.09
2022-11-16T05:44:08.351Z,99341.50
2022-11-16T05:44:48.424Z,99340.88
2022-11-16T05:45:28.399Z,99334.81
2022-11-16T05:46:08.428Z,99340.88
2022-11-16T05:46:49.354Z,99340.22
2022-11-16T05:47:29.470Z,99334.97
2022-11-16T05:48:09.336Z,99341.38
2022-11-16T05:48:49.399Z,99332.38
2022-11-16T05:49:30.347Z,99337.72
2022-11-16T05:50:10.386Z,99342.97
2022-11-16T05:50:50.374Z,99335.19
2022-11-16T05:51:30.394Z,99336.50
2022-11-16T05:52:10.319Z,99333.94
2022-11-16T05:52:50.419Z,99335.50
2022-11-16T05:53:31.342Z,99329.53
2022-11-16T05:54:12.628Z,99333.63
2022-11-16T05:54:52.366Z,99329.53
2022-11-16T05:55:32.360Z,99334.09
2022-11-16T05:56:13.391Z,99327.03
2022-11-16T05:56:55.455Z,99334.38
2022-11-16T05:57:35.338Z,99325.94
2022-11-16T05:58:15.432Z,99325.09
2022-11-16T05:58:56.344Z,99311.00
2022-11-16T05:59:36.382Z,99332.41
2022-11-16T06:00:17.345Z,99324.19
2022-11-16T06:00:57.365Z,99326.78
2022-11-16T06:01:37.293Z,99320.22
2022-11-16T06:02:17.429Z,99323.97
2022-11-16T06:02:57.451Z,99324.09
2022-11-16T06:03:38.465Z,99323.34
2022-11-16T06:04:24.674Z,99321.34
2022-11-16T06:05:05.389Z,99320.81
2022-11-16T06:05:45.339Z,99322.50
2022-11-16T06:06:26.376Z,99321.84
2022-11-16T06:07:06.338Z,99311.94
2022-11-16T06:07:46.376Z,99311.94
2022-11-16T06:08:27.340Z,99303.50
2022-11-16T06:09:07.845Z,99313.28
2022-11-16T06:09:47.339Z,99318.50
2022-11-16T06:10:27.357Z,99320.09
2022-11-16T06:11:10.348Z,99322.06
2022-11-16T06:11:50.392Z,99310.31
2022-11-16T06:12:30.318Z,99316.59
2022-11-16T06:13:10.360Z,99314.03
2022-11-16T06:13:51.325Z,99313.91
2022-11-16T06:14:31.418Z,99314.69
2022-11-16T06:15:12.319Z,99323.72
2022-11-16T06:15:52.372Z,99320.06
2022-11-16T06:16:32.409Z,99324.72
2022-11-16T06:17:14.485Z,99316.38
2022-11-16T06:17:55.340Z,99301.94
2022-11-16T06:18:35.713Z,99321.28
2022-11-16T06:19:16.326Z,99306.50
2022-11-16T06:19:56.368Z,99319.34
2022-11-16T06:20:36.311Z,99317.19
2022-11-16T06:21:17.515Z,99317.91
2022-11-16T06:21:57.341Z,99318.88
2022-11-16T06:22:37.530Z,99313.06
2022-11-16T06:23:17.338Z,99317.44
2022-11-16T06:23:57.352Z,99319.13
2022-11-16T06:24:37.292Z,99321.56
2022-11-16T06:25:17.357Z,99317.75
2022-11-16T06:26:01.309Z,99305.47
2022-11-16T06:26:41.424Z,99300.25
2022-11-16T06:27:22.304Z,99311.28
2022-11-16T06:28:07.516Z,99316.78
2022-11-16T06:28:49.303Z,99308.47
2022-11-16T06:29:29.344Z,99313.84
2022-11-16T06:30:09.327Z,99317.91
2022-11-16T06:31:03.335Z,99324.25
2022-11-16T06:31:57.283Z,99325.38
2022-11-16T06:32:45.338Z,99324.16
2022-11-16T06:33:19.347Z,99317.25
2022-11-16T06:34:06.299Z,99328.91
2022-11-16T06:34:40.332Z,99338.38
2022-11-16T06:35:27.385Z,99330.91
2022-11-16T06:36:01.335Z,99327.44
2022-11-16T06:36:48.295Z,99324.91
2022-11-16T06:37:22.367Z,99336.69
2022-11-16T06:38:09.335Z,99330.47
2022-11-16T06:38:43.350Z,99316.91
2022-11-16T06:39:30.267Z,99320.59
2022-11-16T06:40:04.363Z,99333.75
2022-11-16T06:40:59.287Z,99330.00
2022-11-16T06:41:37.642Z,99331.22
2022-11-16T06:42:27.326Z,99327.63
2022-11-16T06:43:01.414Z,99328.06
2022-11-16T06:43:41.324Z,99325.28
2022-11-16T06:44:21.394Z,99329.41
2022-11-16T06:45:03.282Z,99311.91
2022-11-16T06:45:43.327Z,99330.38
2022-11-16T06:46:23.276Z,99328.69
2022-11-16T06:47:03.340Z,99321.84
2022-11-16T06:47:43.285Z,99330.66
2022-11-16T06:48:24.331Z,99329.66
2022-11-16T06:49:04.287Z,99312.50
2022-11-16T06:49:44.375Z,99327.22
2022-11-16T06:50:27.156Z,99307.91
2022-11-16T06:51:07.334Z,99325.66
2022-11-16T06:51:48.281Z,99326.38
2022-11-16T06:52:28.341Z,99320.81
2022-11-16T06:53:08.268Z,99327.50
2022-11-16T06:53:48.329Z,99315.31
2022-11-16T06:54:28.308Z,99336.03
2022-11-16T06:55:08.319Z,99333.34
2022-11-16T06:55:48.284Z,99332.06
2022-11-16T06:56:28.340Z,99336.81
2022-11-16T06:57:08.277Z,99329.41
2022-11-16T06:57:48.319Z,99333.34
2022-11-16T06:58:28.272Z,99337.72
2022-11-16T06:59:08.293Z,99333.81
2022-11-16T06:59:48.331Z,99335.03
2022-11-16T07:00:28.328Z,99338.31
2022-11-16T07:01:17.478Z,99339.69
2022-11-16T07:01:57.421Z,99338.22
2022-11-16T07:02:37.451Z,99327.75
2022-11-16T07:03:17.313Z,99336.78
2022-11-16T07:03:57.444Z,99328.00
2022-11-16T07:04:39.343Z,99335.78
2022-11-16T07:05:19.260Z,99338.13
2022-11-16T07:05:59.304Z,99330.22
2022-11-16T07:06:39.280Z,99343.13
2022-11-16T07:07:19.448Z,99341.28
2022-11-16T07:08:03.468Z,99341.91
2022-11-16T07:08:43.424Z,99340.13
2022-11-16T07:09:24.253Z,99338.31
2022-11-16T07:10:04.322Z,99332.34
2022-11-16T07:10:45.314Z,99334.38
2022-11-16T07:11:25.329Z,99332.53
2022-11-16T07:12:05.276Z,99340.13
2022-11-16T07:12:45.306Z,99331.50
2022-11-16T07:13:25.265Z,99329.16
2022-11-16T07:14:05.381Z,99338.38
2022-11-16T07:14:45.270Z,99343.50
2022-11-16T07:15:26.299Z,99327.59
2022-11-16T07:16:10.270Z,99328.44
2022-11-16T07:16:52.673Z,99329.63
2022-11-16T07:17:36.305Z,99340.06
2022-11-16T07:18:16.304Z,99336.69
2022-11-16T07:18:57.240Z,99334.97
2022-11-16T07:19:37.289Z,99340.06
2022-11-16T07:20:18.249Z,99343.59
2022-11-16T07:20:58.369Z,99332.63
2022-11-16T07:21:39.286Z,99332.78
2022-11-16T07:22:19.510Z,99332.25
2022-11-16T07:22:59.245Z,99336.44
2022-11-16T07:23:39.333Z,99328.09
2022-11-16T07:24:19.273Z,99335.31
2022-11-16T07:24:59.280Z,99333.22
2022-11-16T07:25:40.220Z,99337.00
2022-11-16T07:26:20.279Z,99340.06
2022-11-16T07:27:00.266Z,99329.84
2022-11-16T07:27:40.374Z,99330.47
2022-11-16T07:28:20.251Z,99331.69
2022-11-16T07:29:00.284Z,99332.53
2022-11-16T07:29:41.236Z,99335.84
2022-11-16T07:30:21.375Z,99335.56
2022-11-16T07:31:02.231Z,99334.84
2022-11-16T07:31:42.296Z,99331.31
2022-11-16T07:32:22.248Z,99319.41
2022-11-16T07:33:06.482Z,99339.13
2022-11-16T07:33:47.219Z,99333.91
2022-11-16T07:34:27.272Z,99325.47
2022-11-16T07:35:07.261Z,99334.28
2022-11-16T07:35:47.284Z,99329.16
2022-11-16T07:36:28.252Z,99317.34
2022-11-16T07:37:08.287Z,99330.38
2022-11-16T07:37:48.275Z,99339.75
2022-11-16T07:38:28.314Z,99320.69
2022-11-16T07:39:09.224Z,99340.41
2022-11-16T07:39:49.300Z,99326.75
2022-11-16T07:40:30.240Z,99321.66
2022-11-16T07:41:17.342Z,99340.16
2022-11-16T07:42:00.378Z,99338.94
2022-11-16T07:42:40.384Z,99336.03
2022-11-16T07:43:20.260Z,99330.91
2022-11-16T07:44:01.180Z,99334.31
2022-11-16T07:44:41.217Z,99342.81
2022-11-16T07:45:21.268Z,99339.75
2022-11-16T07:46:38.041Z,99330.38
2022-11-16T07:47:05.356Z,99346.19
2022-11-16T07:47:45.244Z,99346.09
2022-11-16T07:48:32.571Z,99345.72
2022-11-16T07:49:28.236Z,99338.97
2022-11-16T07:50:22.243Z,99346.38
2022-11-16T07:51:19.221Z,99342.72
2022-11-16T07:52:13.232Z,99328.25
2022-11-16T07:53:09.225Z,99332.03
2022-11-16T07:54:02.250Z,99343.38
2022-11-16T07:54:36.310Z,99345.66
2022-11-16T07:55:23.215Z,99328.09
2022-11-16T07:56:00.303Z,99336.69
2022-11-16T07:56:48.209Z,99341.06
2022-11-16T07:57:22.255Z,99333.53
2022-11-16T07:58:10.223Z,99343.50
2022-11-16T07:58:45.704Z,99336.44
2022-11-16T07:59:25.205Z,99344.91
2022-11-16T08:00:05.277Z,99343.50
2022-11-16T08:00:45.215Z,99341.38
2022-11-16T08:01:26.305Z,99341.38
2022-11-16T08:02:07.295Z,99344.16
2022-11-16T08:02:47.267Z,99344.44
2022-11-16T08:03:28.214Z,99333.09
2022-11-16T08:04:08.319Z,99333.94
2022-11-16T08:04:48.260Z,99341.47
2022-11-16T08:05:28.250Z,99327.44
2022-11-16T08:06:12.206Z,99350.03
2022-11-16T08:06:52.601Z,99341.44
2022-11-16T08:07:32.242Z,99340.47
2022-11-16T08:08:12.277Z,99332.84
2022-11-16T08:08:57.851Z,99334.69
2022-11-16T08:09:39.347Z,99326.50
2022-11-16T08:10:19.253Z,99340.66
2022-11-16T08:10:59.239Z,99331.63
2022-11-16T08:11:40.190Z,99340.13
2022-11-16T08:12:20.249Z,99333.84
2022-11-16T08:13:01.197Z,99337.91
2022-11-16T08:13:43.305Z,99326.25
2022-11-16T08:14:25.217Z,99323.63
2022-11-16T08:15:05.249Z,99332.72
2022-11-16T08:15:45.226Z,99329.78
2022-11-16T08:16:28.623Z,99338.94
2022-11-16T08:17:10.212Z,99333.31
2022-11-16T08:17:50.230Z,99339.84
2022-11-16T08:18:30.241Z,99340.00
2022-11-16T08:19:10.579Z,99318.06
2022-11-16T08:19:50.229Z,99332.78
2022-11-16T08:20:31.396Z,99329.13
2022-11-16T08:21:14.190Z,99338.22
2022-11-16T08:21:54.295Z,99330.38
2022-11-16T08:22:34.165Z,99322.66
2022-11-16T08:23:14.641Z,99331.81
2022-11-16T08:23:58.365Z,99322.56
2022-11-16T08:24:39.232Z,99333.31
2022-11-16T08:25:20.188Z,99326.25
2022-11-16T08:26:09.436Z,99335.63
2022-11-16T08:26:50.224Z,99329.94
2022-11-16T08:27:30.349Z,99329.94
2022-11-16T08:28:10.187Z,99322.56
2022-11-16T08:28:53.770Z,99325.97
2022-11-16T08:29:34.200Z,99331.22
2022-11-16T08:30:15.275Z,99323.28
2022-11-16T08:30:58.160Z,99324.03
2022-11-16T08:31:38.244Z,99321.72
2022-11-16T08:32:18.175Z,99311.25
2022-11-16T08:32:58.263Z,99307.53
2022-11-16T08:33:38.185Z,99323.97
2022-11-16T08:34:18.219Z,99332.72
2022-11-16T08:34:58.185Z,99321.13
2022-11-16T08:35:38.305Z,99320.88
2022-11-16T08:36:23.164Z,99327.78
2022-11-16T08:37:03.306Z,99318.97
2022-11-16T08:37:43.208Z,99324.63
2022-11-16T08:38:23.178Z,99309.66
2022-11-16T08:39:04.188Z,99323.88
2022-11-16T08:39:44.249Z,99328.03
2022-11-16T08:40:25.167Z,99330.19
2022-11-16T08:41:05.239Z,99329.19
2022-11-16T08:41:48.147Z,99332.16
2022-11-16T08:42:28.212Z,99327.63
2022-11-16T08:43:08.197Z,99320.81
2022-11-16T08:43:50.465Z,99328.25
2022-11-16T08:44:30.180Z,99327.41
2022-11-16T08:45:10.287Z,99327.31
2022-11-16T08:45:55.169Z,99331.84
2022-11-16T08:46:35.312Z,99338.50
2022-11-16T08:47:15.164Z,99337.78
2022-11-16T08:48:03.344Z,99324.19
2022-11-16T08:48:45.168Z,99335.47
2022-11-16T08:49:25.196Z,99333.06
2022-11-16T08:50:06.143Z,99328.25